Time;durP1;ratioP1;P1;durP2;ratioP2;P2;SDS_P1;SDS_P2;PMS_P1;PMS_P2;Temp;Humidity;BMP_temperature;BMP_pressure;BME280_temperature;BME280_humidity;BME280_pressure;Samples;Min_cycle;Max_cycle;Signal;HPM_P1;HPM_P2
2024/03/14 00:02:21;;;;;;;54.70;39.30;;;;;;;3.99;100.00;99593.11;447221;1240;138977;-60
2024/03/14 00:12:24;;;;;;;54.20;40.00;;;;;;;4.02;100.00;99597.64;447164;1236;139053;-59
2024/03/14 00:22:27;;;;;;;61.60;45.80;;;;;;;4.06;100.00;99590.75;447223;1240;139037;-59
2024/03/14 00:32:30;;;;;;;62.00;43.10;;;;;;;4.07;100.00;99583.96;447052;1240;139410;-60
2024/03/14 00:42:34;;;;;;;62.60;46.30;;;;;;;4.10;100.00;99583.71;447136;1236;139171;-59
2024/03/14 00:52:37;;;;;;;52.30;41.30;;;;;;;4.09;100.00;99569.68;447221;1240;139122;-60
2024/03/14 01:02:41;;;;;;;58.00;41.90;;;;;;;4.07;100.00;99564.05;447622;1240;139029;-60
2024/03/14 01:12:46;;;;;;;60.20;43.80;;;;;;;4.05;100.00;99556.66;447260;1240;139014;-62
2024/03/14 01:22:49;;;;;;;57.80;41.60;;;;;;;4.04;100.00;99558.08;447529;1240;139362;-60
2024/03/14 01:32:52;;;;;;;48.50;35.50;;;;;;;4.03;100.00;99555.17;447905;1236;139207;-59
2024/03/14 01:42:57;;;;;;;53.80;38.20;;;;;;;4.02;100.00;99557.13;447576;1241;139284;-59
2024/03/14 01:53:00;;;;;;;55.60;39.30;;;;;;;4.01;100.00;99556.64;447727;1240;139356;-75
2024/03/14 02:03:04;;;;;;;55.90;39.50;;;;;;;4.00;100.00;99548.72;448058;1236;139075;-75
2024/03/14 02:13:07;;;;;;;49.40;36.10;;;;;;;3.98;100.00;99550.52;447584;1235;139333;-59
2024/03/14 02:23:10;;;;;;;58.20;39.50;;;;;;;3.96;100.00;99544.20;447409;1240;139139;-58
2024/03/14 02:33:14;;;;;;;54.80;38.20;;;;;;;3.93;100.00;99545.84;447504;1240;139384;-59
2024/03/14 02:43:17;;;;;;;56.50;39.00;;;;;;;3.90;100.00;99545.44;447245;1240;140045;-58
2024/03/14 02:53:20;;;;;;;55.60;35.70;;;;;;;3.83;100.00;99548.30;447518;1240;139504;-60
2024/03/14 03:03:23;;;;;;;52.80;36.30;;;;;;;3.76;100.00;99543.52;447689;1240;139562;-60
2024/03/14 03:13:26;;;;;;;57.20;37.80;;;;;;;3.66;100.00;99544.91;447041;1240;139551;-74
2024/03/14 03:23:29;;;;;;;56.40;37.80;;;;;;;3.57;100.00;99545.95;447507;1240;139221;-75
2024/03/14 03:33:32;;;;;;;56.50;34.20;;;;;;;3.47;100.00;99544.19;447971;1237;139094;-73
2024/03/14 03:43:36;;;;;;;50.30;36.00;;;;;;;3.43;100.00;99545.57;448010;1240;139068;-75
2024/03/14 03:53:39;;;;;;;58.60;37.00;;;;;;;3.44;100.00;99546.74;447265;1241;139451;-59
2024/03/14 04:03:42;;;;;;;59.90;38.20;;;;;;;3.42;100.00;99549.61;447181;1240;139021;-59
2024/03/14 04:13:45;;;;;;;53.70;34.90;;;;;;;3.37;100.00;99549.58;447220;1240;139388;-59
2024/03/14 04:23:49;;;;;;;63.50;37.60;;;;;;;3.30;100.00;99552.59;447210;1240;139418;-60
2024/03/14 04:33:52;;;;;;;72.50;37.90;;;;;;;3.21;100.00;99554.81;448093;1240;138998;-60
2024/03/14 04:43:55;;;;;;;63.20;38.10;;;;;;;3.11;100.00;99554.45;447007;1240;139161;-58
2024/03/14 04:53:59;;;;;;;67.40;37.90;;;;;;;3.03;100.00;99563.36;446969;1240;139578;-58
2024/03/14 05:04:03;;;;;;;61.20;34.90;;;;;;;3.01;100.00;99566.35;447614;1240;138994;-59
2024/03/14 05:14:06;;;;;;;48.50;30.40;;;;;;;2.94;100.00;99570.55;447619;1246;138961;-59
2024/03/14 05:24:10;;;;;;;52.00;31.10;;;;;;;2.89;100.00;99577.84;447394;1239;139048;-59
2024/03/14 05:34:13;;;;;;;49.70;27.60;;;;;;;2.85;100.00;99580.38;447126;1240;139220;-58
2024/03/14 05:44:16;;;;;;;43.90;28.90;;;;;;;2.85;100.00;99584.34;446948;1241;139588;-59
2024/03/14 05:54:20;;;;;;;50.00;26.30;;;;;;;2.91;100.00;99583.27;446935;1240;139614;-58
2024/03/14 06:04:23;;;;;;;30.30;21.10;;;;;;;3.08;100.00;99588.42;447228;1239;139401;-59
2024/03/14 06:14:26;;;;;;;35.90;23.10;;;;;;;3.27;100.00;99595.77;447072;1240;139765;-61
2024/03/14 06:24:29;;;;;;;29.60;22.80;;;;;;;3.52;100.00;99597.36;447632;1240;139099;-60
2024/03/14 06:34:33;;;;;;;33.50;24.80;;;;;;;4.03;100.00;99602.80;447766;1239;139439;-60
2024/03/14 06:44:36;;;;;;;25.60;21.70;;;;;;;4.75;100.00;99590.54;443088;1238;5229526;-60
2024/03/14 06:54:40;;;;;;;26.10;21.60;;;;;;;5.31;100.00;99588.48;447398;1238;140097;-61
2024/03/14 07:04:43;;;;;;;25.70;21.60;;;;;;;5.94;100.00;99598.42;446869;1240;139185;-60
2024/03/14 07:14:47;;;;;;;26.60;21.90;;;;;;;7.09;100.00;99601.41;446926;1240;138964;-59
2024/03/14 07:24:51;;;;;;;22.00;19.70;;;;;;;9.02;100.00;99606.11;446950;1240;140024;-61
2024/03/14 07:34:55;;;;;;;20.40;18.40;;;;;;;10.65;100.00;99606.30;446816;1239;139330;-60
2024/03/14 07:44:59;;;;;;;20.70;18.60;;;;;;;11.99;100.00;99616.16;447234;1240;139508;-61
2024/03/14 07:55:06;;;;;;;21.40;19.30;;;;;;;13.30;100.00;99611.87;446903;1240;139682;-60
2024/03/14 08:05:09;;;;;;;17.80;16.10;;;;;;;16.22;100.00;99607.81;447284;1236;139016;-60
2024/03/14 08:15:16;;;;;;;20.20;18.30;;;;;;;18.71;98.81;99612.03;447899;1240;139159;-60
2024/03/14 08:25:19;;;;;;;20.10;18.50;;;;;;;20.92;97.01;99612.02;446647;1240;139102;-61
2024/03/14 08:35:23;;;;;;;17.30;15.90;;;;;;;24.91;89.92;99609.94;446669;1240;138748;-61
2024/03/14 08:45:26;;;;;;;16.50;15.20;;;;;;;27.73;82.05;99600.78;446847;1240;138850;-60
2024/03/14 08:55:33;;;;;;;17.10;15.40;;;;;;;29.10;74.64;99598.23;447173;1241;138591;-60
2024/03/14 09:05:37;;;;;;;17.10;15.60;;;;;;;28.79;69.11;99594.58;447083;1240;139713;-61
2024/03/14 09:15:40;;;;;;;19.10;17.10;;;;;;;25.73;57.93;99596.90;447000;1238;139830;-60
2024/03/14 09:25:44;;;;;;;18.00;16.10;;;;;;;20.78;56.88;99599.20;446713;1240;139604;-60
2024/03/14 09:35:47;;;;;;;18.70;16.80;;;;;;;17.43;60.53;99598.52;446739;1235;138654;-60
2024/03/14 09:45:55;;;;;;;20.70;18.50;;;;;;;15.75;63.13;99591.92;446886;1237;139048;-60
2024/03/14 09:55:57;;;;;;;;;;;;;;;14.34;65.37;99589.67;447253;1238;138598;-59
2024/03/14 10:06:01;;;;;;;25.30;21.10;;;;;;;13.51;67.88;99592.77;447046;1238;124655;-60
2024/03/14 10:16:05;;;;;;;23.00;20.00;;;;;;;12.93;69.32;99595.13;447283;1239;139312;-60
2024/03/14 10:26:09;;;;;;;23.90;21.30;;;;;;;12.50;70.38;99590.64;447126;1241;138895;-59
2024/03/14 10:36:13;;;;;;;23.80;18.80;;;;;;;12.19;71.68;99587.22;446921;1239;138765;-60
2024/03/14 10:46:17;;;;;;;24.70;19.30;;;;;;;11.97;72.38;99585.05;446956;1239;139135;-60
2024/03/14 10:56:22;;;;;;;23.10;18.50;;;;;;;11.79;72.12;99570.30;446869;1240;139216;-60
2024/03/14 11:06:34;;;;;;;17.60;14.40;;;;;;;11.64;71.63;99568.52;447084;1239;139020;-60
2024/03/14 11:16:39;;;;;;;16.90;12.20;;;;;;;11.50;70.09;99565.42;447072;1239;138923;-59
2024/03/14 11:26:47;;;;;;;23.50;17.70;;;;;;;11.84;69.77;99559.79;447064;1240;139491;-61
2024/03/14 11:36:50;;;;;;;21.10;18.20;;;;;;;11.77;71.08;99559.02;446684;1240;139082;-60
2024/03/14 11:46:57;;;;;;;25.90;19.50;;;;;;;11.35;71.64;99554.88;447097;1236;139447;-60
2024/03/14 11:57:01;;;;;;;22.80;18.30;;;;;;;11.19;73.06;99548.95;446723;1240;138178;-60
2024/03/14 12:07:07;;;;;;;23.10;18.70;;;;;;;11.31;73.28;99546.05;446941;1239;139066;-61
2024/03/14 12:17:17;;;;;;;24.10;21.00;;;;;;;11.54;73.15;99542.36;446703;1240;139137;-61
2024/03/14 12:27:20;;;;;;;22.90;20.50;;;;;;;11.66;73.66;99541.72;447302;1236;139098;-79
2024/03/14 12:37:24;;;;;;;23.70;20.50;;;;;;;11.59;73.95;99531.55;448345;1236;139637;-77
2024/03/14 12:47:28;;;;;;;27.10;21.30;;;;;;;11.46;74.50;99523.66;446909;1238;138958;-59
2024/03/14 12:57:31;;;;;;;21.20;17.50;;;;;;;11.19;74.62;99520.41;448010;1241;138603;-59
2024/03/14 13:07:36;;;;;;;23.70;19.00;;;;;;;11.04;75.05;99517.88;446898;1238;139325;-59
2024/03/14 13:17:46;;;;;;;21.90;19.20;;;;;;;11.10;75.24;99508.19;446982;1235;138508;-59
2024/03/14 13:27:49;;;;;;;17.40;13.60;;;;;;;11.25;75.21;99495.27;447235;1238;138648;-60
2024/03/14 13:37:54;;;;;;;21.10;17.10;;;;;;;11.56;74.22;99489.66;446860;1240;141959;-59
2024/03/14 13:48:03;;;;;;;25.10;19.70;;;;;;;11.75;73.71;99484.83;446947;1240;138601;-60
2024/03/14 13:58:07;;;;;;;21.60;16.50;;;;;;;11.69;73.07;99482.11;447063;1240;138735;-58
2024/03/14 14:08:10;;;;;;;25.00;18.70;;;;;;;11.74;72.26;99466.48;446791;1239;138715;-60
2024/03/14 14:18:15;;;;;;;16.20;13.30;;;;;;;11.79;71.33;99460.34;447040;1239;139499;-59
2024/03/14 14:28:21;;;;;;;14.80;11.80;;;;;;;11.72;70.19;99464.52;447288;1240;138606;-59
2024/03/14 14:38:24;;;;;;;13.30;11.20;;;;;;;11.66;69.22;99464.55;447074;1239;138652;-78
2024/03/14 14:48:27;;;;;;;13.80;11.60;;;;;;;11.43;68.32;99463.35;447038;1240;139203;-78
2024/03/14 14:58:31;;;;;;;15.70;12.10;;;;;;;11.27;68.00;99461.14;447531;1239;138874;-62
2024/03/14 15:08:34;;;;;;;14.20;10.10;;;;;;;11.19;67.64;99458.20;446817;1240;139144;-64
2024/03/14 15:18:37;;;;;;;13.60;10.90;;;;;;;11.07;67.17;99453.73;447089;1236;139050;-78
2024/03/14 15:28:43;;;;;;;12.50;10.70;;;;;;;10.83;66.58;99451.48;447150;1236;139037;-77
2024/03/14 15:38:46;;;;;;;11.10;7.50;;;;;;;10.45;66.01;99451.52;447520;1240;139092;-78
2024/03/14 15:48:50;;;;;;;11.30;8.90;;;;;;;10.18;65.61;99448.52;447164;1240;138496;-78
2024/03/14 15:58:55;;;;;;;14.50;10.20;;;;;;;9.91;65.24;99447.11;447299;1239;138332;-77
2024/03/14 16:08:58;;;;;;;15.50;9.60;;;;;;;9.60;65.21;99449.37;447128;1240;138341;-77
2024/03/14 16:19:04;;;;;;;16.60;12.30;;;;;;;9.32;65.77;99451.79;446764;1240;138592;-60
2024/03/14 16:29:08;;;;;;;21.20;15.90;;;;;;;9.00;66.73;99453.66;446742;1237;139429;-61
2024/03/14 16:39:18;;;;;;;22.80;15.70;;;;;;;8.67;67.70;99458.77;447044;1240;138286;-59
2024/03/14 16:49:21;;;;;;;25.60;16.80;;;;;;;8.34;68.58;99463.40;446850;1238;138398;-59
2024/03/14 16:59:25;;;;;;;27.10;19.70;;;;;;;7.99;69.38;99470.50;447548;1236;138376;-59
2024/03/14 17:09:29;;;;;;;28.90;20.10;;;;;;;7.70;70.26;99463.58;447638;1240;138896;-76
2024/03/14 17:19:32;;;;;;;33.20;20.10;;;;;;;7.43;71.20;99463.23;448771;1240;138229;-76
2024/03/14 17:29:38;;;;;;;29.00;20.60;;;;;;;7.20;72.29;99468.45;448356;1236;138715;-59
2024/03/14 17:39:42;;;;;;;36.40;24.30;;;;;;;6.97;73.29;99469.80;447277;1236;139368;-59
2024/03/14 17:49:45;;;;;;;35.00;22.20;;;;;;;6.74;74.22;99474.41;447602;1236;139305;-59
2024/03/14 17:59:48;;;;;;;36.70;24.40;;;;;;;6.53;75.17;99470.95;447237;1240;139446;-59
2024/03/14 18:09:52;;;;;;;36.30;26.20;;;;;;;6.34;76.02;99476.55;447761;1236;139403;-59
2024/03/14 18:19:55;;;;;;;78.50;46.20;;;;;;;6.15;76.97;99476.75;447065;1241;139518;-59
2024/03/14 18:29:59;;;;;;;49.80;30.60;;;;;;;5.99;77.84;99479.20;447527;1237;141282;-59
2024/03/14 18:40:03;;;;;;;43.30;29.00;;;;;;;5.84;78.48;99477.08;443696;1236;5082191;-58
2024/03/14 18:50:11;;;;;;;40.20;27.10;;;;;;;5.70;79.31;99482.77;447505;1239;139295;-73
2024/03/14 19:00:18;;;;;;;36.70;25.60;;;;;;;5.60;80.10;99487.55;447467;1240;139408;-74
2024/03/14 19:10:22;;;;;;;39.40;28.20;;;;;;;5.51;80.72;99487.06;447580;1240;138931;-61
2024/03/14 19:20:25;;;;;;;36.10;25.90;;;;;;;5.37;81.24;99488.06;448267;1240;139250;-60
2024/03/14 19:30:39;;;;;;;34.90;26.40;;;;;;;5.19;81.86;99487.09;448027;1237;139361;-74
2024/03/14 19:40:45;;;;;;;36.00;25.00;;;;;;;5.06;82.67;99489.04;447476;1236;139003;-74
2024/03/14 19:50:48;;;;;;;34.20;24.30;;;;;;;4.90;83.29;99493.86;447632;1240;139427;-73
2024/03/14 20:00:51;;;;;;;44.20;30.80;;;;;;;4.76;84.13;99496.52;447537;1239;139270;-74
2024/03/14 20:10:54;;;;;;;42.00;30.50;;;;;;;4.68;85.28;99496.52;447269;1240;138906;-73
2024/03/14 20:20:58;;;;;;;47.50;30.30;;;;;;;4.58;86.06;99485.80;447590;1239;139494;-60
2024/03/14 20:31:01;;;;;;;45.30;33.60;;;;;;;4.49;87.04;99478.90;448895;1239;140399;-59
2024/03/14 20:41:07;;;;;;;44.90;33.60;;;;;;;4.36;88.06;99477.00;449431;1240;139567;-58
2024/03/14 20:51:17;;;;;;;48.10;33.10;;;;;;;4.24;89.28;99474.16;450713;1240;138888;-73
2024/03/14 21:01:21;;;;;;;49.50;35.60;;;;;;;4.13;90.54;99474.45;450180;1240;139338;-74
2024/03/14 21:11:24;;;;;;;52.00;36.00;;;;;;;4.01;91.74;99477.63;449479;1240;139572;-73
2024/03/14 21:21:30;;;;;;;45.90;31.50;;;;;;;3.91;93.00;99484.08;450096;1241;138819;-60
2024/03/14 21:31:33;;;;;;;41.80;29.40;;;;;;;3.81;94.25;99482.91;449875;1241;139908;-60
2024/03/14 21:41:39;;;;;;;44.20;29.70;;;;;;;3.69;95.32;99481.27;449304;1240;139503;-59
2024/03/14 21:51:43;;;;;;;44.60;27.50;;;;;;;3.61;96.49;99475.34;449256;1241;138982;-60
2024/03/14 22:01:46;;;;;;;41.50;29.00;;;;;;;3.55;98.15;99478.52;449891;1236;139291;-74
2024/03/14 22:11:50;;;;;;;42.60;28.00;;;;;;;3.47;99.35;99477.73;449090;1240;139439;-75
2024/03/14 22:21:53;;;;;;;41.10;28.50;;;;;;;3.42;99.96;99477.25;449636;1239;139447;-75
2024/03/14 22:31:56;;;;;;;50.50;29.50;;;;;;;3.32;100.00;99473.77;449435;1240;139644;-75
2024/03/14 22:41:59;;;;;;;48.00;30.40;;;;;;;3.23;100.00;99474.48;448402;1240;139680;-73
2024/03/14 22:52:03;;;;;;;46.90;29.60;;;;;;;3.14;100.00;99467.67;448063;1241;139688;-75
2024/03/14 23:02:05;;;;;;;38.50;26.70;;;;;;;3.05;100.00;99468.16;447505;1239;139139;-60
2024/03/14 23:12:10;;;;;;;45.70;30.40;;;;;;;2.95;100.00;99467.64;447446;1240;139143;-59
2024/03/14 23:22:13;;;;;;;43.20;29.20;;;;;;;2.84;100.00;99466.44;447635;1240;139512;-59
2024/03/14 23:32:16;;;;;;;36.60;24.80;;;;;;;2.75;100.00;99464.15;447508;1241;139238;-60
2024/03/14 23:42:34;;;;;;;48.50;29.30;;;;;;;2.67;100.00;99463.91;447667;1240;139176;-59
2024/03/14 23:52:38;;;;;;;44.90;31.80;;;;;;;2.59;100.00;99460.87;447963;1240;140058;-60
